sensor_id;sensor_type;location;lat;lon;timestamp;P1;durP1;ratioP1;P2;durP2;ratioP2
48765;SDS011;65794;51.836;5.002;2024-03-23T00:53:42;17.55;;;4.60;;
48765;SDS011;65794;51.836;5.002;2024-03-23T00:56:08;19.02;;;4.72;;
48765;SDS011;65794;51.836;5.002;2024-03-23T00:58:38;19.33;;;4.15;;
48765;SDS011;65794;51.836;5.002;2024-03-23T01:01:06;13.63;;;4.68;;
48765;SDS011;65794;51.836;5.002;2024-03-23T01:03:32;14.50;;;4.20;;
48765;SDS011;65794;51.836;5.002;2024-03-23T01:05:59;21.27;;;4.55;;
48765;SDS011;65794;51.836;5.002;2024-03-23T01:08:24;14.68;;;3.83;;
48765;SDS011;65794;51.836;5.002;2024-03-23T01:10:54;21.23;;;3.92;;
48765;SDS011;65794;51.836;5.002;2024-03-23T01:13:20;15.25;;;3.67;;
48765;SDS011;65794;51.836;5.002;2024-03-23T01:15:48;14.10;;;3.67;;
48765;SDS011;65794;51.836;5.002;2024-03-23T01:18:14;14.45;;;3.03;;
48765;SDS011;65794;51.836;5.002;2024-03-23T01:20:40;19.55;;;2.88;;
48765;SDS011;65794;51.836;5.002;2024-03-23T01:23:06;9.48;;;2.90;;
48765;SDS011;65794;51.836;5.002;2024-03-23T01:25:31;16.23;;;3.78;;
48765;SDS011;65794;51.836;5.002;2024-03-23T01:27:57;7.75;;;2.47;;
48765;SDS011;65794;51.836;5.002;2024-03-23T01:30:23;9.43;;;2.58;;
48765;SDS011;65794;51.836;5.002;2024-03-23T01:32:49;14.05;;;2.33;;
48765;SDS011;65794;51.836;5.002;2024-03-23T01:35:15;13.90;;;2.03;;
48765;SDS011;65794;51.836;5.002;2024-03-23T01:37:40;8.68;;;2.22;;
48765;SDS011;65794;51.836;5.002;2024-03-23T01:40:06;14.48;;;2.38;;
48765;SDS011;65794;51.836;5.002;2024-03-23T01:42:32;8.18;;;2.60;;
48765;SDS011;65794;51.836;5.002;2024-03-23T01:44:58;12.00;;;2.25;;
48765;SDS011;65794;51.836;5.002;2024-03-23T01:47:24;8.98;;;2.08;;
48765;SDS011;65794;51.836;5.002;2024-03-23T01:49:50;15.15;;;2.85;;
48765;SDS011;65794;51.836;5.002;2024-03-23T01:52:17;15.27;;;2.13;;
48765;SDS011;65794;51.836;5.002;2024-03-23T01:54:43;10.82;;;2.35;;
48765;SDS011;65794;51.836;5.002;2024-03-23T01:57:09;14.73;;;3.13;;
48765;SDS011;65794;51.836;5.002;2024-03-23T01:59:35;11.80;;;2.45;;
48765;SDS011;65794;51.836;5.002;2024-03-23T02:02:02;17.13;;;2.20;;
48765;SDS011;65794;51.836;5.002;2024-03-23T02:04:29;13.13;;;2.60;;
48765;SDS011;65794;51.836;5.002;2024-03-23T02:06:55;8.20;;;1.52;;
48765;SDS011;65794;51.836;5.002;2024-03-23T02:09:20;6.53;;;1.70;;
48765;SDS011;65794;51.836;5.002;2024-03-23T02:11:47;14.15;;;2.58;;
48765;SDS011;65794;51.836;5.002;2024-03-23T02:14:15;13.00;;;2.47;;
48765;SDS011;65794;51.836;5.002;2024-03-23T02:16:40;13.15;;;2.60;;
48765;SDS011;65794;51.836;5.002;2024-03-23T02:19:08;20.63;;;3.22;;
48765;SDS011;65794;51.836;5.002;2024-03-23T02:21:34;13.02;;;2.80;;
48765;SDS011;65794;51.836;5.002;2024-03-23T02:24:00;13.32;;;2.22;;
48765;SDS011;65794;51.836;5.002;2024-03-23T02:26:26;11.93;;;2.90;;
48765;SDS011;65794;51.836;5.002;2024-03-23T02:28:52;17.00;;;2.88;;
48765;SDS011;65794;51.836;5.002;2024-03-23T02:31:18;11.00;;;3.28;;
48765;SDS011;65794;51.836;5.002;2024-03-23T02:33:44;12.05;;;2.17;;
48765;SDS011;65794;51.836;5.002;2024-03-23T02:36:09;16.05;;;2.92;;
48765;SDS011;65794;51.836;5.002;2024-03-23T02:38:35;16.52;;;2.83;;
48765;SDS011;65794;51.836;5.002;2024-03-23T02:41:04;14.75;;;3.35;;
48765;SDS011;65794;51.836;5.002;2024-03-23T02:43:30;18.25;;;3.05;;
48765;SDS011;65794;51.836;5.002;2024-03-23T02:45:56;18.45;;;4.15;;
48765;SDS011;65794;51.836;5.002;2024-03-23T02:48:21;13.52;;;3.60;;
48765;SDS011;65794;51.836;5.002;2024-03-23T02:50:47;24.48;;;4.35;;
48765;SDS011;65794;51.836;5.002;2024-03-23T02:53:13;13.50;;;3.45;;
48765;SDS011;65794;51.836;5.002;2024-03-23T02:55:39;12.38;;;2.78;;
48765;SDS011;65794;51.836;5.002;2024-03-23T02:58:05;16.05;;;3.95;;
48765;SDS011;65794;51.836;5.002;2024-03-23T03:00:30;15.00;;;3.72;;
48765;SDS011;65794;51.836;5.002;2024-03-23T03:02:56;14.32;;;2.92;;
48765;SDS011;65794;51.836;5.002;2024-03-23T03:05:22;20.15;;;3.17;;
48765;SDS011;65794;51.836;5.002;2024-03-23T03:07:48;16.35;;;3.63;;
48765;SDS011;65794;51.836;5.002;2024-03-23T03:10:14;15.70;;;3.45;;
48765;SDS011;65794;51.836;5.002;2024-03-23T03:12:40;11.27;;;2.80;;
48765;SDS011;65794;51.836;5.002;2024-03-23T03:15:06;14.63;;;3.53;;
48765;SDS011;65794;51.836;5.002;2024-03-23T03:17:32;12.68;;;3.17;;
48765;SDS011;65794;51.836;5.002;2024-03-23T03:19:58;16.55;;;3.67;;
48765;SDS011;65794;51.836;5.002;2024-03-23T03:22:23;15.65;;;2.78;;
48765;SDS011;65794;51.836;5.002;2024-03-23T03:24:49;15.95;;;3.08;;
48765;SDS011;65794;51.836;5.002;2024-03-23T03:27:15;12.93;;;2.88;;
48765;SDS011;65794;51.836;5.002;2024-03-23T03:29:41;16.90;;;3.15;;
48765;SDS011;65794;51.836;5.002;2024-03-23T03:32:07;14.07;;;2.25;;
48765;SDS011;65794;51.836;5.002;2024-03-23T03:34:32;21.90;;;2.28;;
48765;SDS011;65794;51.836;5.002;2024-03-23T03:36:58;17.17;;;3.35;;
48765;SDS011;65794;51.836;5.002;2024-03-23T03:39:25;14.15;;;2.08;;
48765;SDS011;65794;51.836;5.002;2024-03-23T03:41:51;13.98;;;2.40;;
48765;SDS011;65794;51.836;5.002;2024-03-23T03:44:16;19.15;;;2.28;;
48765;SDS011;65794;51.836;5.002;2024-03-23T03:46:42;17.67;;;2.67;;
48765;SDS011;65794;51.836;5.002;2024-03-23T03:49:08;13.40;;;2.38;;
48765;SDS011;65794;51.836;5.002;2024-03-23T03:51:34;13.55;;;2.10;;
48765;SDS011;65794;51.836;5.002;2024-03-23T03:54:00;13.00;;;2.67;;
48765;SDS011;65794;51.836;5.002;2024-03-23T03:56:26;15.55;;;2.40;;
48765;SDS011;65794;51.836;5.002;2024-03-23T03:58:53;11.75;;;2.20;;
48765;SDS011;65794;51.836;5.002;2024-03-23T04:01:19;8.90;;;2.40;;
48765;SDS011;65794;51.836;5.002;2024-03-23T04:03:45;6.85;;;2.10;;
48765;SDS011;65794;51.836;5.002;2024-03-23T04:06:12;20.65;;;1.90;;
48765;SDS011;65794;51.836;5.002;2024-03-23T04:08:43;12.32;;;2.33;;
48765;SDS011;65794;51.836;5.002;2024-03-23T04:11:09;11.68;;;2.00;;
48765;SDS011;65794;51.836;5.002;2024-03-23T04:13:35;9.35;;;1.70;;
48765;SDS011;65794;51.836;5.002;2024-03-23T04:16:01;11.15;;;2.03;;
48765;SDS011;65794;51.836;5.002;2024-03-23T04:18:27;7.55;;;1.92;;
48765;SDS011;65794;51.836;5.002;2024-03-23T04:20:53;15.48;;;2.53;;
48765;SDS011;65794;51.836;5.002;2024-03-23T04:23:19;9.68;;;1.60;;
48765;SDS011;65794;51.836;5.002;2024-03-23T04:25:46;22.20;;;2.67;;
48765;SDS011;65794;51.836;5.002;2024-03-23T04:28:12;14.20;;;2.08;;
48765;SDS011;65794;51.836;5.002;2024-03-23T04:30:38;6.45;;;1.42;;
48765;SDS011;65794;51.836;5.002;2024-03-23T04:33:04;7.28;;;1.50;;
48765;SDS011;65794;51.836;5.002;2024-03-23T04:35:30;7.65;;;1.70;;
48765;SDS011;65794;51.836;5.002;2024-03-23T04:37:56;11.48;;;2.03;;
48765;SDS011;65794;51.836;5.002;2024-03-23T04:40:24;12.05;;;1.60;;
48765;SDS011;65794;51.836;5.002;2024-03-23T04:42:50;12.52;;;1.73;;
48765;SDS011;65794;51.836;5.002;2024-03-23T04:45:16;15.52;;;2.00;;
48765;SDS011;65794;51.836;5.002;2024-03-23T04:47:42;9.00;;;1.65;;
48765;SDS011;65794;51.836;5.002;2024-03-23T04:50:08;14.98;;;1.60;;
48765;SDS011;65794;51.836;5.002;2024-03-23T04:52:36;11.70;;;1.80;;
48765;SDS011;65794;51.836;5.002;2024-03-23T04:55:02;16.88;;;1.75;;
48765;SDS011;65794;51.836;5.002;2024-03-23T04:57:29;12.73;;;1.95;;
48765;SDS011;65794;51.836;5.002;2024-03-23T04:59:55;10.10;;;1.77;;
48765;SDS011;65794;51.836;5.002;2024-03-23T05:02:21;13.30;;;1.77;;
48765;SDS011;65794;51.836;5.002;2024-03-23T05:04:47;11.13;;;2.35;;
48765;SDS011;65794;51.836;5.002;2024-03-23T05:07:13;10.73;;;2.05;;
48765;SDS011;65794;51.836;5.002;2024-03-23T05:09:39;20.88;;;2.70;;
48765;SDS011;65794;51.836;5.002;2024-03-23T05:12:05;18.00;;;2.70;;
48765;SDS011;65794;51.836;5.002;2024-03-23T05:14:31;16.95;;;2.65;;
48765;SDS011;65794;51.836;5.002;2024-03-23T05:16:57;7.80;;;2.00;;
48765;SDS011;65794;51.836;5.002;2024-03-23T05:19:23;8.85;;;2.33;;
48765;SDS011;65794;51.836;5.002;2024-03-23T05:21:49;8.73;;;2.35;;
48765;SDS011;65794;51.836;5.002;2024-03-23T05:24:15;12.32;;;2.25;;
48765;SDS011;65794;51.836;5.002;2024-03-23T05:26:41;10.13;;;2.30;;
48765;SDS011;65794;51.836;5.002;2024-03-23T05:29:07;8.93;;;2.08;;
48765;SDS011;65794;51.836;5.002;2024-03-23T05:31:36;6.93;;;1.80;;
48765;SDS011;65794;51.836;5.002;2024-03-23T05:34:03;9.38;;;1.90;;
48765;SDS011;65794;51.836;5.002;2024-03-23T05:36:29;14.13;;;2.75;;
48765;SDS011;65794;51.836;5.002;2024-03-23T05:38:55;12.18;;;2.30;;
48765;SDS011;65794;51.836;5.002;2024-03-23T05:41:21;13.05;;;1.98;;
48765;SDS011;65794;51.836;5.002;2024-03-23T05:43:49;6.80;;;1.83;;
48765;SDS011;65794;51.836;5.002;2024-03-23T05:46:15;6.47;;;1.52;;
48765;SDS011;65794;51.836;5.002;2024-03-23T05:48:41;8.98;;;1.80;;
48765;SDS011;65794;51.836;5.002;2024-03-23T05:51:06;14.57;;;1.80;;
48765;SDS011;65794;51.836;5.002;2024-03-23T05:53:34;16.30;;;1.77;;
48765;SDS011;65794;51.836;5.002;2024-03-23T05:56:01;11.43;;;1.85;;
48765;SDS011;65794;51.836;5.002;2024-03-23T05:58:29;11.65;;;2.03;;
48765;SDS011;65794;51.836;5.002;2024-03-23T06:00:58;5.60;;;1.58;;
48765;SDS011;65794;51.836;5.002;2024-03-23T06:03:26;15.95;;;1.90;;
48765;SDS011;65794;51.836;5.002;2024-03-23T06:05:52;9.32;;;2.10;;
48765;SDS011;65794;51.836;5.002;2024-03-23T06:08:18;9.45;;;1.70;;
48765;SDS011;65794;51.836;5.002;2024-03-23T06:10:45;11.40;;;2.28;;
48765;SDS011;65794;51.836;5.002;2024-03-23T06:13:11;9.38;;;1.85;;
48765;SDS011;65794;51.836;5.002;2024-03-23T06:15:37;11.18;;;2.45;;
48765;SDS011;65794;51.836;5.002;2024-03-23T06:18:03;13.77;;;2.28;;
48765;SDS011;65794;51.836;5.002;2024-03-23T06:20:30;9.25;;;2.50;;
48765;SDS011;65794;51.836;5.002;2024-03-23T06:22:56;12.70;;;2.08;;
48765;SDS011;65794;51.836;5.002;2024-03-23T06:25:22;9.07;;;2.80;;
48765;SDS011;65794;51.836;5.002;2024-03-23T06:27:47;15.60;;;1.80;;
48765;SDS011;65794;51.836;5.002;2024-03-23T06:30:14;6.80;;;1.75;;
48765;SDS011;65794;51.836;5.002;2024-03-23T06:32:40;15.40;;;2.17;;
48765;SDS011;65794;51.836;5.002;2024-03-23T06:35:06;12.73;;;2.25;;
48765;SDS011;65794;51.836;5.002;2024-03-23T06:37:35;13.02;;;2.58;;
48765;SDS011;65794;51.836;5.002;2024-03-23T06:40:01;13.48;;;1.90;;
48765;SDS011;65794;51.836;5.002;2024-03-23T06:42:27;10.07;;;2.00;;
48765;SDS011;65794;51.836;5.002;2024-03-23T06:44:53;10.15;;;1.75;;
48765;SDS011;65794;51.836;5.002;2024-03-23T06:47:19;14.48;;;2.30;;
48765;SDS011;65794;51.836;5.002;2024-03-23T06:49:45;11.98;;;2.88;;
48765;SDS011;65794;51.836;5.002;2024-03-23T06:52:11;13.25;;;2.53;;
48765;SDS011;65794;51.836;5.002;2024-03-23T06:54:37;25.85;;;4.88;;
48765;SDS011;65794;51.836;5.002;2024-03-23T06:57:02;13.02;;;3.53;;
48765;SDS011;65794;51.836;5.002;2024-03-23T06:59:28;18.15;;;2.78;;
48765;SDS011;65794;51.836;5.002;2024-03-23T07:01:54;18.85;;;3.35;;
48765;SDS011;65794;51.836;5.002;2024-03-23T07:04:20;14.02;;;3.28;;
48765;SDS011;65794;51.836;5.002;2024-03-23T07:06:46;12.20;;;3.25;;
48765;SDS011;65794;51.836;5.002;2024-03-23T07:09:12;9.55;;;2.47;;
48765;SDS011;65794;51.836;5.002;2024-03-23T07:11:38;11.45;;;2.97;;
48765;SDS011;65794;51.836;5.002;2024-03-23T07:14:03;9.07;;;2.20;;
48765;SDS011;65794;51.836;5.002;2024-03-23T07:16:29;14.80;;;2.30;;
48765;SDS011;65794;51.836;5.002;2024-03-23T07:18:55;18.73;;;3.03;;
48765;SDS011;65794;51.836;5.002;2024-03-23T07:21:21;9.82;;;1.95;;
48765;SDS011;65794;51.836;5.002;2024-03-23T07:23:47;8.50;;;2.35;;
48765;SDS011;65794;51.836;5.002;2024-03-23T07:26:13;10.93;;;2.05;;
48765;SDS011;65794;51.836;5.002;2024-03-23T07:28:39;9.63;;;1.40;;
48765;SDS011;65794;51.836;5.002;2024-03-23T07:33:35;13.40;;;1.63;;
48765;SDS011;65794;51.836;5.002;2024-03-23T07:36:01;27.05;;;2.85;;
48765;SDS011;65794;51.836;5.002;2024-03-23T07:38:28;9.70;;;1.63;;
48765;SDS011;65794;51.836;5.002;2024-03-23T07:41:03;12.77;;;1.45;;
48765;SDS011;65794;51.836;5.002;2024-03-23T07:45:55;9.90;;;1.20;;
48765;SDS011;65794;51.836;5.002;2024-03-23T07:48:21;9.40;;;1.30;;
48765;SDS011;65794;51.836;5.002;2024-03-23T07:53:22;14.60;;;1.65;;
48765;SDS011;65794;51.836;5.002;2024-03-23T08:00:40;7.20;;;1.00;;
48765;SDS011;65794;51.836;5.002;2024-03-23T08:12:49;11.05;;;2.20;;
48765;SDS011;65794;51.836;5.002;2024-03-23T08:15:15;11.77;;;1.75;;
48765;SDS011;65794;51.836;5.002;2024-03-23T08:17:41;9.70;;;1.52;;
48765;SDS011;65794;51.836;5.002;2024-03-23T08:20:07;10.73;;;1.40;;
48765;SDS011;65794;51.836;5.002;2024-03-23T08:22:33;11.02;;;1.40;;
48765;SDS011;65794;51.836;5.002;2024-03-23T08:24:59;12.77;;;1.40;;
48765;SDS011;65794;51.836;5.002;2024-03-23T08:27:25;8.23;;;1.35;;
48765;SDS011;65794;51.836;5.002;2024-03-23T08:29:51;10.73;;;1.50;;
48765;SDS011;65794;51.836;5.002;2024-03-23T08:32:17;16.27;;;1.73;;
48765;SDS011;65794;51.836;5.002;2024-03-23T08:34:43;4.28;;;1.40;;
48765;SDS011;65794;51.836;5.002;2024-03-23T08:37:09;12.07;;;1.63;;
48765;SDS011;65794;51.836;5.002;2024-03-23T08:42:03;10.10;;;1.70;;
48765;SDS011;65794;51.836;5.002;2024-03-23T08:44:29;9.40;;;1.15;;
48765;SDS011;65794;51.836;5.002;2024-03-23T08:46:58;8.30;;;1.45;;
48765;SDS011;65794;51.836;5.002;2024-03-23T08:49:24;8.20;;;1.30;;
48765;SDS011;65794;51.836;5.002;2024-03-23T08:51:53;7.45;;;1.27;;
48765;SDS011;65794;51.836;5.002;2024-03-23T08:54:21;8.73;;;1.52;;
48765;SDS011;65794;51.836;5.002;2024-03-23T08:56:48;4.35;;;1.25;;
48765;SDS011;65794;51.836;5.002;2024-03-23T09:04:15;16.48;;;1.20;;
48765;SDS011;65794;51.836;5.002;2024-03-23T09:06:43;5.13;;;1.02;;
48765;SDS011;65794;51.836;5.002;2024-03-23T09:09:09;7.53;;;0.90;;
48765;SDS011;65794;51.836;5.002;2024-03-23T09:11:35;9.32;;;1.38;;
48765;SDS011;65794;51.836;5.002;2024-03-23T09:14:01;6.50;;;1.48;;
48765;SDS011;65794;51.836;5.002;2024-03-23T09:16:27;9.35;;;1.35;;
48765;SDS011;65794;51.836;5.002;2024-03-23T09:18:52;8.93;;;1.58;;
48765;SDS011;65794;51.836;5.002;2024-03-23T09:21:18;6.13;;;1.00;;
48765;SDS011;65794;51.836;5.002;2024-03-23T09:23:44;9.35;;;1.20;;
48765;SDS011;65794;51.836;5.002;2024-03-23T09:26:10;7.05;;;0.88;;
48765;SDS011;65794;51.836;5.002;2024-03-23T09:28:36;6.78;;;1.10;;
48765;SDS011;65794;51.836;5.002;2024-03-23T09:31:06;10.95;;;1.75;;
48765;SDS011;65794;51.836;5.002;2024-03-23T09:33:33;11.30;;;1.65;;
48765;SDS011;65794;51.836;5.002;2024-03-23T09:36:02;11.30;;;1.75;;
48765;SDS011;65794;51.836;5.002;2024-03-23T09:38:28;11.65;;;1.63;;
48765;SDS011;65794;51.836;5.002;2024-03-23T09:40:54;5.68;;;1.35;;
48765;SDS011;65794;51.836;5.002;2024-03-23T09:43:20;11.65;;;1.40;;
48765;SDS011;65794;51.836;5.002;2024-03-23T09:45:47;9.30;;;1.20;;
48765;SDS011;65794;51.836;5.002;2024-03-23T09:48:15;11.18;;;0.90;;
48765;SDS011;65794;51.836;5.002;2024-03-23T09:50:42;7.00;;;0.90;;
48765;SDS011;65794;51.836;5.002;2024-03-23T09:53:08;7.40;;;1.05;;
48765;SDS011;65794;51.836;5.002;2024-03-23T09:55:35;8.80;;;1.20;;
48765;SDS011;65794;51.836;5.002;2024-03-23T09:58:04;5.35;;;0.70;;
48765;SDS011;65794;51.836;5.002;2024-03-23T10:00:34;6.10;;;1.30;;
48765;SDS011;65794;51.836;5.002;2024-03-23T10:03:00;13.00;;;1.27;;
48765;SDS011;65794;51.836;5.002;2024-03-23T10:05:33;7.13;;;1.48;;
48765;SDS011;65794;51.836;5.002;2024-03-23T10:10:40;7.60;;;0.98;;
48765;SDS011;65794;51.836;5.002;2024-03-23T10:13:07;8.50;;;1.15;;
48765;SDS011;65794;51.836;5.002;2024-03-23T10:15:36;6.72;;;0.80;;
48765;SDS011;65794;51.836;5.002;2024-03-23T10:18:18;9.52;;;1.05;;
48765;SDS011;65794;51.836;5.002;2024-03-23T10:20:51;9.48;;;0.90;;
48765;SDS011;65794;51.836;5.002;2024-03-23T10:23:17;5.07;;;0.85;;
48765;SDS011;65794;51.836;5.002;2024-03-23T10:25:43;5.82;;;1.20;;
48765;SDS011;65794;51.836;5.002;2024-03-23T10:28:09;13.20;;;1.48;;
48765;SDS011;65794;51.836;5.002;2024-03-23T10:30:37;6.38;;;0.80;;
48765;SDS011;65794;51.836;5.002;2024-03-23T10:33:09;7.93;;;0.82;;
48765;SDS011;65794;51.836;5.002;2024-03-23T10:35:36;6.72;;;0.77;;
48765;SDS011;65794;51.836;5.002;2024-03-23T10:38:03;6.38;;;0.77;;
48765;SDS011;65794;51.836;5.002;2024-03-23T10:40:30;6.47;;;0.82;;
48765;SDS011;65794;51.836;5.002;2024-03-23T10:42:58;5.80;;;1.20;;
48765;SDS011;65794;51.836;5.002;2024-03-23T10:45:24;7.75;;;1.02;;
48765;SDS011;65794;51.836;5.002;2024-03-23T10:47:50;8.77;;;1.10;;
48765;SDS011;65794;51.836;5.002;2024-03-23T10:50:16;9.13;;;1.33;;
48765;SDS011;65794;51.836;5.002;2024-03-23T10:55:08;5.93;;;0.80;;
48765;SDS011;65794;51.836;5.002;2024-03-23T10:57:40;6.28;;;1.52;;
48765;SDS011;65794;51.836;5.002;2024-03-23T11:00:07;6.93;;;1.05;;
48765;SDS011;65794;51.836;5.002;2024-03-23T11:02:37;13.38;;;1.45;;
48765;SDS011;65794;51.836;5.002;2024-03-23T11:05:12;12.23;;;1.27;;
48765;SDS011;65794;51.836;5.002;2024-03-23T11:07:51;6.90;;;1.03;;
48765;SDS011;65794;51.836;5.002;2024-03-23T11:10:30;4.55;;;0.60;;
48765;SDS011;65794;51.836;5.002;2024-03-23T11:12:58;8.10;;;1.08;;
48765;SDS011;65794;51.836;5.002;2024-03-23T11:15:44;4.72;;;0.93;;
48765;SDS011;65794;51.836;5.002;2024-03-23T11:18:10;9.77;;;1.10;;
48765;SDS011;65794;51.836;5.002;2024-03-23T11:20:37;9.35;;;1.15;;
48765;SDS011;65794;51.836;5.002;2024-03-23T11:23:04;84.22;;;28.55;;
48765;SDS011;65794;51.836;5.002;2024-03-23T11:25:30;5.88;;;1.00;;
48765;SDS011;65794;51.836;5.002;2024-03-23T11:27:57;10.60;;;3.00;;
48765;SDS011;65794;51.836;5.002;2024-03-23T11:30:23;7.55;;;2.47;;
48765;SDS011;65794;51.836;5.002;2024-03-23T11:32:50;66.13;;;23.60;;
48765;SDS011;65794;51.836;5.002;2024-03-23T11:38:02;103.72;;;45.67;;
48765;SDS011;65794;51.836;5.002;2024-03-23T11:40:28;95.82;;;43.00;;
48765;SDS011;65794;51.836;5.002;2024-03-23T11:42:55;24.00;;;6.68;;
48765;SDS011;65794;51.836;5.002;2024-03-23T11:45:21;18.70;;;5.38;;
48765;SDS011;65794;51.836;5.002;2024-03-23T11:47:46;10.50;;;3.60;;
48765;SDS011;65794;51.836;5.002;2024-03-23T11:50:19;9.38;;;2.00;;
48765;SDS011;65794;51.836;5.002;2024-03-23T11:52:44;8.93;;;1.70;;
48765;SDS011;65794;51.836;5.002;2024-03-23T11:55:10;11.00;;;2.67;;
48765;SDS011;65794;51.836;5.002;2024-03-23T11:57:36;10.77;;;1.85;;
48765;SDS011;65794;51.836;5.002;2024-03-23T12:00:20;9.05;;;2.42;;
48765;SDS011;65794;51.836;5.002;2024-03-23T12:02:46;5.28;;;1.25;;
48765;SDS011;65794;51.836;5.002;2024-03-23T12:05:15;6.32;;;1.08;;
48765;SDS011;65794;51.836;5.002;2024-03-23T12:07:41;5.75;;;0.98;;
48765;SDS011;65794;51.836;5.002;2024-03-23T12:10:07;6.10;;;0.90;;
48765;SDS011;65794;51.836;5.002;2024-03-23T12:12:34;7.70;;;1.10;;
48765;SDS011;65794;51.836;5.002;2024-03-23T12:17:26;5.18;;;0.63;;
48765;SDS011;65794;51.836;5.002;2024-03-23T12:19:52;9.85;;;1.05;;
48765;SDS011;65794;51.836;5.002;2024-03-23T12:22:21;9.23;;;1.08;;
48765;SDS011;65794;51.836;5.002;2024-03-23T12:24:47;5.65;;;0.80;;
48765;SDS011;65794;51.836;5.002;2024-03-23T12:27:13;6.45;;;0.95;;
48765;SDS011;65794;51.836;5.002;2024-03-23T12:29:40;7.57;;;0.50;;
48765;SDS011;65794;51.836;5.002;2024-03-23T12:34:33;2.90;;;0.30;;
48765;SDS011;65794;51.836;5.002;2024-03-23T12:36:58;5.05;;;0.65;;
48765;SDS011;65794;51.836;5.002;2024-03-23T12:39:24;7.32;;;0.85;;
48765;SDS011;65794;51.836;5.002;2024-03-23T12:41:50;5.18;;;0.63;;
48765;SDS011;65794;51.836;5.002;2024-03-23T12:44:18;7.53;;;0.88;;
48765;SDS011;65794;51.836;5.002;2024-03-23T12:46:44;4.13;;;0.40;;
48765;SDS011;65794;51.836;5.002;2024-03-23T12:49:10;10.00;;;0.80;;
48765;SDS011;65794;51.836;5.002;2024-03-23T12:51:36;4.55;;;0.47;;
48765;SDS011;65794;51.836;5.002;2024-03-23T12:54:02;5.05;;;0.60;;
48765;SDS011;65794;51.836;5.002;2024-03-23T12:56:28;3.90;;;0.60;;
48765;SDS011;65794;51.836;5.002;2024-03-23T12:58:54;9.63;;;0.50;;
48765;SDS011;65794;51.836;5.002;2024-03-23T13:01:25;2.30;;;0.43;;
48765;SDS011;65794;51.836;5.002;2024-03-23T13:06:17;3.85;;;0.63;;
48765;SDS011;65794;51.836;5.002;2024-03-23T13:08:46;2.78;;;0.50;;
48765;SDS011;65794;51.836;5.002;2024-03-23T13:11:14;6.00;;;0.70;;
48765;SDS011;65794;51.836;5.002;2024-03-23T13:13:41;7.05;;;0.70;;
48765;SDS011;65794;51.836;5.002;2024-03-23T13:16:07;3.83;;;0.50;;
48765;SDS011;65794;51.836;5.002;2024-03-23T13:18:33;5.60;;;0.70;;
48765;SDS011;65794;51.836;5.002;2024-03-23T13:20:59;4.20;;;0.60;;
48765;SDS011;65794;51.836;5.002;2024-03-23T13:23:25;5.55;;;0.60;;
48765;SDS011;65794;51.836;5.002;2024-03-23T13:25:55;3.80;;;0.40;;
48765;SDS011;65794;51.836;5.002;2024-03-23T13:28:24;6.53;;;0.70;;
48765;SDS011;65794;51.836;5.002;2024-03-23T13:30:50;8.00;;;0.82;;
48765;SDS011;65794;51.836;5.002;2024-03-23T13:33:17;7.05;;;0.57;;
48765;SDS011;65794;51.836;5.002;2024-03-23T13:35:52;4.68;;;0.50;;
48765;SDS011;65794;51.836;5.002;2024-03-23T13:38:18;5.25;;;0.70;;
48765;SDS011;65794;51.836;5.002;2024-03-23T13:40:51;4.85;;;0.55;;
48765;SDS011;65794;51.836;5.002;2024-03-23T13:43:17;3.92;;;0.57;;
48765;SDS011;65794;51.836;5.002;2024-03-23T13:45:43;3.53;;;0.40;;
48765;SDS011;65794;51.836;5.002;2024-03-23T13:48:10;5.50;;;0.60;;
48765;SDS011;65794;51.836;5.002;2024-03-23T13:50:36;5.78;;;0.80;;
48765;SDS011;65794;51.836;5.002;2024-03-23T13:53:02;4.78;;;0.57;;
48765;SDS011;65794;51.836;5.002;2024-03-23T13:55:28;7.00;;;0.65;;
48765;SDS011;65794;51.836;5.002;2024-03-23T13:57:53;5.20;;;0.70;;
48765;SDS011;65794;51.836;5.002;2024-03-23T14:00:20;4.38;;;0.60;;
48765;SDS011;65794;51.836;5.002;2024-03-23T14:02:49;5.43;;;0.60;;
48765;SDS011;65794;51.836;5.002;2024-03-23T14:05:14;7.47;;;0.90;;
48765;SDS011;65794;51.836;5.002;2024-03-23T14:07:40;9.98;;;0.80;;
48765;SDS011;65794;51.836;5.002;2024-03-23T14:10:06;3.75;;;0.65;;
48765;SDS011;65794;51.836;5.002;2024-03-23T14:12:32;4.43;;;0.50;;
48765;SDS011;65794;51.836;5.002;2024-03-23T14:14:58;3.00;;;0.30;;
48765;SDS011;65794;51.836;5.002;2024-03-23T14:17:24;5.25;;;0.60;;
48765;SDS011;65794;51.836;5.002;2024-03-23T14:19:51;1.08;;;0.43;;
48765;SDS011;65794;51.836;5.002;2024-03-23T14:22:17;12.25;;;0.90;;
48765;SDS011;65794;51.836;5.002;2024-03-23T14:24:45;10.73;;;1.17;;
48765;SDS011;65794;51.836;5.002;2024-03-23T14:27:10;7.05;;;1.45;;
48765;SDS011;65794;51.836;5.002;2024-03-23T14:29:36;5.38;;;0.70;;
48765;SDS011;65794;51.836;5.002;2024-03-23T14:32:02;1.83;;;0.30;;
48765;SDS011;65794;51.836;5.002;2024-03-23T14:34:29;2.45;;;0.30;;
48765;SDS011;65794;51.836;5.002;2024-03-23T14:36:54;2.10;;;0.30;;
48765;SDS011;65794;51.836;5.002;2024-03-23T14:39:23;3.42;;;0.40;;
48765;SDS011;65794;51.836;5.002;2024-03-23T14:41:50;2.13;;;0.40;;
48765;SDS011;65794;51.836;5.002;2024-03-23T14:44:16;1.33;;;0.47;;
48765;SDS011;65794;51.836;5.002;2024-03-23T14:46:42;0.95;;;0.20;;
48765;SDS011;65794;51.836;5.002;2024-03-23T14:49:08;3.35;;;0.38;;
48765;SDS011;65794;51.836;5.002;2024-03-23T14:54:00;5.72;;;0.60;;
48765;SDS011;65794;51.836;5.002;2024-03-23T14:56:26;4.25;;;0.55;;
48765;SDS011;65794;51.836;5.002;2024-03-23T14:58:53;8.20;;;0.90;;
48765;SDS011;65794;51.836;5.002;2024-03-23T15:01:19;1.98;;;0.43;;
48765;SDS011;65794;51.836;5.002;2024-03-23T15:03:46;1.35;;;0.30;;
48765;SDS011;65794;51.836;5.002;2024-03-23T15:06:13;3.15;;;0.60;;
48765;SDS011;65794;51.836;5.002;2024-03-23T15:08:39;3.22;;;0.43;;
48765;SDS011;65794;51.836;5.002;2024-03-23T15:11:06;3.35;;;0.40;;
48765;SDS011;65794;51.836;5.002;2024-03-23T15:13:32;5.07;;;0.50;;
48765;SDS011;65794;51.836;5.002;2024-03-23T15:15:59;1.73;;;0.32;;
48765;SDS011;65794;51.836;5.002;2024-03-23T15:18:25;4.55;;;0.60;;
48765;SDS011;65794;51.836;5.002;2024-03-23T15:20:55;2.17;;;0.40;;
48765;SDS011;65794;51.836;5.002;2024-03-23T15:23:21;5.85;;;0.63;;
48765;SDS011;65794;51.836;5.002;2024-03-23T15:28:39;1.40;;;0.40;;
48765;SDS011;65794;51.836;5.002;2024-03-23T15:31:24;2.97;;;0.43;;
48765;SDS011;65794;51.836;5.002;2024-03-23T15:33:50;3.03;;;0.40;;
48765;SDS011;65794;51.836;5.002;2024-03-23T15:36:16;2.45;;;0.40;;
48765;SDS011;65794;51.836;5.002;2024-03-23T15:38:42;1.73;;;0.40;;
48765;SDS011;65794;51.836;5.002;2024-03-23T15:41:08;3.15;;;0.40;;
48765;SDS011;65794;51.836;5.002;2024-03-23T15:43:34;1.05;;;0.38;;
48765;SDS011;65794;51.836;5.002;2024-03-23T15:46:01;1.77;;;0.32;;
48765;SDS011;65794;51.836;5.002;2024-03-23T15:48:27;0.95;;;0.30;;
48765;SDS011;65794;51.836;5.002;2024-03-23T15:50:53;1.50;;;0.30;;
48765;SDS011;65794;51.836;5.002;2024-03-23T15:53:20;1.98;;;0.40;;
48765;SDS011;65794;51.836;5.002;2024-03-23T15:55:59;2.47;;;0.30;;
48765;SDS011;65794;51.836;5.002;2024-03-23T15:58:26;1.80;;;0.30;;
48765;SDS011;65794;51.836;5.002;2024-03-23T16:01:00;0.55;;;0.25;;
48765;SDS011;65794;51.836;5.002;2024-03-23T16:03:26;2.00;;;0.30;;
48765;SDS011;65794;51.836;5.002;2024-03-23T16:05:53;3.20;;;0.30;;
48765;SDS011;65794;51.836;5.002;2024-03-23T16:08:20;1.13;;;0.40;;
48765;SDS011;65794;51.836;5.002;2024-03-23T16:10:46;1.77;;;0.40;;
48765;SDS011;65794;51.836;5.002;2024-03-23T16:13:12;2.45;;;0.40;;
48765;SDS011;65794;51.836;5.002;2024-03-23T16:15:38;2.95;;;0.43;;
48765;SDS011;65794;51.836;5.002;2024-03-23T16:18:04;3.58;;;0.40;;
48765;SDS011;65794;51.836;5.002;2024-03-23T16:20:30;2.53;;;0.50;;